Time;durP1;ratioP1;P1;durP2;ratioP2;P2;SDS_P1;SDS_P2;PMS_P1;PMS_P2;Temp;Humidity;BMP_temperature;BMP_pressure;BME280_temperature;BME280_humidity;BME280_pressure;Samples;Min_cycle;Max_cycle;Signal;HPM_P1;HPM_P2
2021/07/14 00:01:24;;;;;;;4.60;1.73;;;;;;;;;;4961862;28;20051;-77
2021/07/14 00:03:51;;;;;;;3.28;1.77;;;;;;;;;;4961987;28;20044;-77
2021/07/14 00:06:18;;;;;;;3.50;1.42;;;;;;;;;;4960874;29;20421;-77
2021/07/14 00:08:46;;;;;;;3.72;1.92;;;;;;;;;;4961983;29;20083;-78
2021/07/14 00:11:13;;;;;;;3.83;1.40;;;;;;;;;;4961851;29;20047;-78
2021/07/14 00:13:57;;;;;;;3.47;1.23;;;;;;;;;;4958298;28;20051;-78
2021/07/14 00:22:11;;;;;;;2.63;1.23;;;;;;;;;;4947939;28;20066;-78
2021/07/14 00:24:40;;;;;;;3.25;1.38;;;;;;;;;;4955891;28;20062;-78
2021/07/14 00:27:09;;;;;;;2.83;1.55;;;;;;;;;;4956679;29;20059;-78
2021/07/14 00:29:37;;;;;;;3.65;1.20;;;;;;;;;;4957624;29;20059;-78
2021/07/14 00:32:04;;;;;;;3.72;1.20;;;;;;;;;;4961221;28;20051;-77
2021/07/14 00:34:32;;;;;;;2.67;1.20;;;;;;;;;;4954344;28;20464;-77
2021/07/14 00:36:58;;;;;;;2.60;1.17;;;;;;;;;;4957733;28;20523;-77
2021/07/14 00:39:25;;;;;;;2.45;1.17;;;;;;;;;;4954354;29;20106;-77
2021/07/14 00:41:53;;;;;;;3.30;1.33;;;;;;;;;;4954178;29;20106;-77
2021/07/14 00:44:20;;;;;;;3.35;1.25;;;;;;;;;;4954390;29;20051;-76
2021/07/14 00:46:48;;;;;;;2.97;1.50;;;;;;;;;;4955064;29;20051;-76
2021/07/14 00:49:16;;;;;;;4.40;1.55;;;;;;;;;;4955566;28;20059;-77
2021/07/14 00:51:43;;;;;;;6.13;1.77;;;;;;;;;;4955868;29;20051;-77
2021/07/14 00:54:11;;;;;;;6.10;1.67;;;;;;;;;;4955671;28;20047;-76
2021/07/14 00:56:38;;;;;;;3.92;1.52;;;;;;;;;;4954143;29;20059;-77
2021/07/14 00:59:06;;;;;;;2.60;1.40;;;;;;;;;;4956021;28;20051;-77
2021/07/14 01:01:33;;;;;;;3.10;1.60;;;;;;;;;;4956111;29;20409;-76
2021/07/14 01:04:09;;;;;;;2.83;1.63;;;;;;;;;;4956729;28;20058;-76
2021/07/14 01:06:46;;;;;;;3.95;1.63;;;;;;;;;;4955640;29;20051;-78
2021/07/14 01:09:16;;;;;;;3.10;1.40;;;;;;;;;;4955531;29;20492;-78
2021/07/14 01:11:44;;;;;;;3.40;1.60;;;;;;;;;;4953893;29;20043;-78
2021/07/14 01:14:21;;;;;;;3.53;1.70;;;;;;;;;;4953952;29;20047;-78
2021/07/14 01:16:55;;;;;;;2.80;1.50;;;;;;;;;;4953310;29;20051;-78
2021/07/14 01:19:39;;;;;;;4.15;1.52;;;;;;;;;;4953665;29;20047;-78
2021/07/14 01:22:18;;;;;;;3.40;2.53;;;;;;;;;;4953898;29;20051;-77
2021/07/14 01:24:55;;;;;;;2.47;1.27;;;;;;;;;;4953437;28;20050;-78
2021/07/14 01:27:25;;;;;;;3.25;1.70;;;;;;;;;;4953964;29;20051;-77
2021/07/14 01:29:54;;;;;;;4.22;1.45;;;;;;;;;;4953856;29;20507;-78
2021/07/14 01:32:24;;;;;;;2.45;1.40;;;;;;;;;;4954242;29;20102;-78
2021/07/14 01:34:55;;;;;;;4.60;1.52;;;;;;;;;;4953971;29;20090;-77
2021/07/14 01:37:24;;;;;;;3.50;1.50;;;;;;;;;;4954021;28;20047;-78
2021/07/14 01:39:52;;;;;;;2.65;1.40;;;;;;;;;;4956273;29;20047;-77
2021/07/14 01:42:22;;;;;;;4.18;1.35;;;;;;;;;;4976701;29;20047;-77
2021/07/14 01:44:53;;;;;;;2.92;1.40;;;;;;;;;;4975001;29;20036;-76
2021/07/14 01:47:22;;;;;;;4.68;1.50;;;;;;;;;;4963908;28;20051;-78
2021/07/14 01:49:54;;;;;;;3.20;1.35;;;;;;;;;;4961277;28;20051;-77
2021/07/14 01:52:25;;;;;;;2.45;1.33;;;;;;;;;;4958072;29;20390;-78
2021/07/14 01:54:54;;;;;;;2.90;1.42;;;;;;;;;;4956735;29;20108;-78
2021/07/14 01:57:22;;;;;;;2.42;1.35;;;;;;;;;;4957085;29;20389;-78
2021/07/14 01:59:53;;;;;;;3.10;1.40;;;;;;;;;;4957030;28;20063;-78
2021/07/14 02:02:23;;;;;;;3.10;1.58;;;;;;;;;;4956743;29;20110;-78
2021/07/14 02:04:51;;;;;;;3.20;1.80;;;;;;;;;;4956414;28;20047;-78
2021/07/14 02:07:25;;;;;;;3.88;1.67;;;;;;;;;;4957981;28;20047;-78
2021/07/14 02:09:53;;;;;;;3.67;1.80;;;;;;;;;;4957990;28;20055;-78
2021/07/14 02:12:21;;;;;;;4.38;1.70;;;;;;;;;;4957309;28;20056;-79
2021/07/14 02:14:53;;;;;;;2.60;1.50;;;;;;;;;;4955985;28;20563;-78
2021/07/14 02:17:23;;;;;;;4.47;1.80;;;;;;;;;;4956721;28;20110;-77
2021/07/14 02:19:54;;;;;;;2.92;1.88;;;;;;;;;;4956636;28;20044;-78
2021/07/14 02:22:21;;;;;;;3.70;1.58;;;;;;;;;;4956846;28;20055;-78
2021/07/14 02:24:47;;;;;;;3.80;1.55;;;;;;;;;;4956250;29;20047;-78
2021/07/14 02:27:16;;;;;;;3.40;1.50;;;;;;;;;;4956459;29;20067;-78
2021/07/14 02:29:43;;;;;;;3.45;1.65;;;;;;;;;;4956573;29;20157;-78
2021/07/14 02:32:16;;;;;;;3.05;1.65;;;;;;;;;;4956341;28;20123;-79
2021/07/14 02:34:43;;;;;;;3.85;1.85;;;;;;;;;;4955597;29;20457;-78
2021/07/14 02:37:12;;;;;;;3.38;1.63;;;;;;;;;;4956548;28;20094;-79
2021/07/14 02:39:40;;;;;;;3.60;1.77;;;;;;;;;;4956421;28;20053;-78
2021/07/14 02:42:13;;;;;;;3.33;1.83;;;;;;;;;;4956577;28;20047;-79
2021/07/14 02:44:44;;;;;;;3.90;2.03;;;;;;;;;;4955440;28;20051;-77
2021/07/14 02:47:14;;;;;;;3.95;1.88;;;;;;;;;;4956024;28;20070;-78
2021/07/14 02:49:41;;;;;;;;;;;;;;;;;;4956859;28;20163;-78
2021/07/14 02:52:11;;;;;;;3.80;1.90;;;;;;;;;;4956117;28;19966;-77
2021/07/14 02:54:40;;;;;;;3.20;1.70;;;;;;;;;;4955226;28;20075;-78
2021/07/14 02:57:10;;;;;;;4.20;1.90;;;;;;;;;;4957316;28;20051;-78
2021/07/14 02:59:40;;;;;;;3.22;1.42;;;;;;;;;;4965287;28;20488;-78
2021/07/14 03:02:08;;;;;;;4.05;1.80;;;;;;;;;;4966606;28;20071;-77
2021/07/14 03:04:38;;;;;;;3.05;1.50;;;;;;;;;;4960074;28;20047;-78
2021/07/14 03:07:08;;;;;;;4.20;1.70;;;;;;;;;;4956407;28;20456;-78
2021/07/14 03:09:38;;;;;;;4.03;1.90;;;;;;;;;;4956676;28;20051;-78
2021/07/14 03:12:08;;;;;;;4.30;2.00;;;;;;;;;;4956755;28;20118;-78
2021/07/14 03:14:38;;;;;;;4.65;1.98;;;;;;;;;;4956805;29;20051;-79
2021/07/14 03:17:05;;;;;;;4.03;1.90;;;;;;;;;;4956861;28;20050;-78
2021/07/14 03:19:33;;;;;;;4.03;2.40;;;;;;;;;;4956373;28;20118;-78
2021/07/14 03:22:02;;;;;;;4.22;1.73;;;;;;;;;;4956183;28;20464;-78
2021/07/14 03:24:30;;;;;;;3.72;1.70;;;;;;;;;;4956741;28;20043;-78
2021/07/14 03:26:57;;;;;;;3.58;2.00;;;;;;;;;;4955453;28;20047;-78
2021/07/14 03:29:25;;;;;;;3.20;1.77;;;;;;;;;;4956492;28;20114;-78
2021/07/14 03:31:52;;;;;;;4.13;1.75;;;;;;;;;;4956330;28;20043;-78
2021/07/14 03:34:19;;;;;;;3.30;1.58;;;;;;;;;;4974828;28;20058;-77
2021/07/14 03:36:48;;;;;;;5.03;1.90;;;;;;;;;;4977831;28;20068;-78
2021/07/14 03:39:16;;;;;;;3.67;1.75;;;;;;;;;;4977725;28;20051;-78
2021/07/14 03:41:44;;;;;;;3.85;1.42;;;;;;;;;;4977402;28;20031;-78
2021/07/14 03:44:13;;;;;;;4.22;1.60;;;;;;;;;;4959298;28;20424;-78
2021/07/14 03:46:41;;;;;;;4.30;2.03;;;;;;;;;;4954268;28;20110;-78
2021/07/14 03:49:09;;;;;;;4.57;2.38;;;;;;;;;;4955022;28;20110;-78
2021/07/14 03:51:36;;;;;;;4.20;2.67;;;;;;;;;;4954947;28;20051;-79
2021/07/14 03:54:03;;;;;;;3.65;1.88;;;;;;;;;;4954828;28;20513;-79
2021/07/14 03:56:31;;;;;;;3.47;1.70;;;;;;;;;;4954216;28;20047;-78
2021/07/14 03:58:58;;;;;;;6.00;2.20;;;;;;;;;;4954778;28;20051;-79
2021/07/14 04:01:25;;;;;;;2.92;1.52;;;;;;;;;;4954853;28;20122;-79
2021/07/14 04:03:53;;;;;;;3.30;1.60;;;;;;;;;;4954746;28;20114;-78
2021/07/14 04:06:21;;;;;;;3.05;1.90;;;;;;;;;;4953898;28;20050;-78
2021/07/14 04:09:07;;;;;;;4.47;2.08;;;;;;;;;;4954613;28;20055;-78
2021/07/14 04:11:36;;;;;;;4.38;2.00;;;;;;;;;;4957123;28;20509;-79
2021/07/14 04:14:03;;;;;;;4.75;2.15;;;;;;;;;;4959206;28;20047;-79
2021/07/14 04:16:29;;;;;;;3.05;1.48;;;;;;;;;;4957366;28;20529;-79
2021/07/14 04:18:56;;;;;;;3.88;1.70;;;;;;;;;;4957420;28;20493;-79
2021/07/14 04:21:23;;;;;;;5.95;3.53;;;;;;;;;;4958258;28;20563;-79
2021/07/14 04:23:50;;;;;;;6.88;5.20;;;;;;;;;;4957935;28;20098;-80
2021/07/14 04:26:16;;;;;;;5.63;3.40;;;;;;;;;;4957303;28;20064;-79
2021/07/14 04:28:44;;;;;;;3.60;1.77;;;;;;;;;;4958376;28;20043;-79
2021/07/14 04:31:11;;;;;;;5.53;3.58;;;;;;;;;;4958639;28;20079;-79
2021/07/14 04:33:38;;;;;;;4.43;2.10;;;;;;;;;;4958227;28;20087;-79
2021/07/14 04:36:06;;;;;;;3.97;1.80;;;;;;;;;;4957640;28;20051;-79
2021/07/14 04:38:32;;;;;;;3.30;1.48;;;;;;;;;;4957252;28;20199;-79
2021/07/14 04:40:59;;;;;;;2.78;1.40;;;;;;;;;;4957654;28;20043;-79
2021/07/14 04:43:26;;;;;;;4.82;1.70;;;;;;;;;;4956189;28;20118;-78
2021/07/14 04:45:54;;;;;;;4.10;1.65;;;;;;;;;;4953996;28;20056;-78
2021/07/14 04:48:20;;;;;;;3.67;1.40;;;;;;;;;;4954137;28;20047;-78
2021/07/14 04:50:47;;;;;;;3.83;1.52;;;;;;;;;;4953986;28;20059;-78
2021/07/14 04:53:14;;;;;;;4.60;1.77;;;;;;;;;;4954240;28;20106;-78
2021/07/14 04:55:41;;;;;;;3.55;1.65;;;;;;;;;;4953685;28;20138;-78
2021/07/14 04:58:08;;;;;;;2.65;1.40;;;;;;;;;;4954184;28;20587;-78
2021/07/14 05:00:35;;;;;;;3.60;1.65;;;;;;;;;;4953799;28;20419;-78
2021/07/14 05:03:03;;;;;;;3.45;1.40;;;;;;;;;;4954305;28;20055;-78
2021/07/14 05:05:30;;;;;;;3.28;1.60;;;;;;;;;;4953583;28;20055;-78
2021/07/14 05:07:57;;;;;;;3.65;1.73;;;;;;;;;;4954515;28;20464;-78
2021/07/14 05:10:28;;;;;;;2.75;1.42;;;;;;;;;;4953843;28;20047;-79
2021/07/14 05:12:56;;;;;;;4.15;1.50;;;;;;;;;;4988916;23;20046;-76
2021/07/14 05:15:22;;;;;;;2.97;1.58;;;;;;;;;;4974279;28;20043;-76
2021/07/14 05:17:49;;;;;;;6.53;2.38;;;;;;;;;;4976985;28;20062;-76
2021/07/14 05:20:18;;;;;;;5.60;1.50;;;;;;;;;;4976058;28;20451;-77
2021/07/14 05:22:45;;;;;;;3.28;1.58;;;;;;;;;;4976289;28;20078;-77
2021/07/14 05:25:12;;;;;;;3.83;1.90;;;;;;;;;;4977770;28;20051;-76
2021/07/14 05:27:40;;;;;;;3.53;1.73;;;;;;;;;;4977904;28;20109;-76
2021/07/14 05:30:07;;;;;;;3.05;1.20;;;;;;;;;;4977672;28;20373;-77
2021/07/14 05:32:34;;;;;;;4.60;1.23;;;;;;;;;;4977637;28;20051;-76
2021/07/14 05:35:02;;;;;;;2.90;1.10;;;;;;;;;;4977684;28;20070;-77
2021/07/14 05:37:30;;;;;;;3.45;1.30;;;;;;;;;;4978716;28;20059;-77
2021/07/14 05:39:57;;;;;;;2.28;1.45;;;;;;;;;;4978044;28;20051;-76
2021/07/14 05:42:24;;;;;;;2.28;1.23;;;;;;;;;;4977925;28;20504;-76
2021/07/14 05:44:50;;;;;;;3.95;1.30;;;;;;;;;;4976571;28;20487;-76
2021/07/14 05:47:17;;;;;;;3.50;1.55;;;;;;;;;;4977259;28;20047;-76
2021/07/14 05:49:44;;;;;;;3.55;1.50;;;;;;;;;;4977308;28;20054;-76
2021/07/14 05:52:14;;;;;;;3.45;1.50;;;;;;;;;;4976801;28;20133;-76
2021/07/14 05:54:42;;;;;;;4.07;1.53;;;;;;;;;;4975993;28;20054;-76
2021/07/14 05:57:09;;;;;;;2.72;1.20;;;;;;;;;;4976219;28;20051;-76
2021/07/14 05:59:36;;;;;;;3.72;1.50;;;;;;;;;;4976525;28;20042;-76
2021/07/14 06:02:03;;;;;;;4.18;1.33;;;;;;;;;;4959713;28;20055;-76
2021/07/14 06:04:29;;;;;;;2.92;1.23;;;;;;;;;;4957630;28;20063;-76
2021/07/14 06:06:59;;;;;;;3.45;1.70;;;;;;;;;;4956444;28;20048;-77
2021/07/14 06:09:25;;;;;;;2.90;1.40;;;;;;;;;;4957891;28;20193;-76
2021/07/14 06:11:53;;;;;;;2.55;1.38;;;;;;;;;;4956927;28;20504;-76
2021/07/14 06:14:20;;;;;;;3.58;1.65;;;;;;;;;;4957496;29;20117;-76
2021/07/14 06:16:47;;;;;;;3.83;1.73;;;;;;;;;;4956105;28;20094;-77
2021/07/14 06:19:14;;;;;;;3.80;1.33;;;;;;;;;;4956795;29;20051;-76
2021/07/14 06:21:40;;;;;;;2.72;1.38;;;;;;;;;;4956676;29;20047;-76
2021/07/14 06:24:07;;;;;;;5.05;1.83;;;;;;;;;;4956772;29;20110;-76
2021/07/14 06:26:34;;;;;;;4.80;1.98;;;;;;;;;;4956069;29;20102;-76
2021/07/14 06:29:02;;;;;;;4.07;1.83;;;;;;;;;;4956548;29;20397;-76
2021/07/14 06:31:29;;;;;;;3.00;1.55;;;;;;;;;;4956582;29;20055;-75
2021/07/14 06:33:56;;;;;;;4.60;1.58;;;;;;;;;;4956216;28;20658;-76
2021/07/14 06:36:23;;;;;;;4.55;1.90;;;;;;;;;;4955161;29;20110;-76
2021/07/14 06:38:50;;;;;;;4.05;2.13;;;;;;;;;;4956338;28;20500;-76
2021/07/14 06:41:18;;;;;;;5.60;2.05;;;;;;;;;;4956219;29;20051;-76
2021/07/14 06:43:47;;;;;;;3.50;1.77;;;;;;;;;;4956549;29;20168;-77
2021/07/14 06:46:17;;;;;;;5.10;1.92;;;;;;;;;;4955651;29;20493;-77
2021/07/14 06:48:44;;;;;;;3.42;1.90;;;;;;;;;;4956548;29;20047;-77
2021/07/14 06:51:11;;;;;;;7.80;2.67;;;;;;;;;;4956161;29;20055;-76
2021/07/14 06:53:38;;;;;;;3.72;1.63;;;;;;;;;;4956700;29;20489;-77
2021/07/14 06:56:06;;;;;;;4.55;2.10;;;;;;;;;;4955458;29;20047;-76
2021/07/14 06:58:35;;;;;;;3.33;1.88;;;;;;;;;;4956127;29;20529;-76
2021/07/14 07:01:02;;;;;;;4.78;2.47;;;;;;;;;;4956187;28;20051;-76
2021/07/14 07:03:30;;;;;;;2.83;1.60;;;;;;;;;;4956313;28;20055;-76
2021/07/14 07:05:57;;;;;;;3.55;1.85;;;;;;;;;;4950515;28;20043;-76
2021/07/14 07:08:24;;;;;;;9.43;2.20;;;;;;;;;;4954321;28;20047;-76
2021/07/14 07:10:51;;;;;;;5.50;2.83;;;;;;;;;;4954165;28;20051;-76
2021/07/14 07:13:18;;;;;;;5.88;2.03;;;;;;;;;;4953610;28;20572;-76
2021/07/14 07:15:45;;;;;;;4.60;1.83;;;;;;;;;;4952782;28;20047;-76
2021/07/14 07:18:12;;;;;;;6.13;2.00;;;;;;;;;;4952977;28;20532;-76
2021/07/14 07:20:41;;;;;;;4.88;1.90;;;;;;;;;;4953520;28;20055;-76
2021/07/14 07:23:08;;;;;;;4.03;2.00;;;;;;;;;;4951381;29;20195;-76
2021/07/14 07:25:35;;;;;;;8.13;2.13;;;;;;;;;;4953206;28;20043;-76
2021/07/14 07:28:03;;;;;;;3.78;1.95;;;;;;;;;;4953674;28;20050;-76
2021/07/14 07:30:30;;;;;;;4.70;2.53;;;;;;;;;;4953112;28;20150;-75
2021/07/14 07:32:57;;;;;;;4.38;2.22;;;;;;;;;;4953195;28;20429;-76
2021/07/14 07:35:25;;;;;;;4.15;1.90;;;;;;;;;;4952555;28;20054;-76
2021/07/14 07:37:53;;;;;;;5.30;2.08;;;;;;;;;;4944183;28;20051;-76
2021/07/14 07:40:19;;;;;;;3.72;2.10;;;;;;;;;;4942897;29;20055;-75
2021/07/14 07:42:46;;;;;;;5.85;2.20;;;;;;;;;;4942517;28;20055;-76
2021/07/14 07:45:13;;;;;;;4.00;1.95;;;;;;;;;;4949098;28;20058;-76
2021/07/14 07:47:40;;;;;;;5.53;2.33;;;;;;;;;;4952602;28;20050;-76
2021/07/14 07:50:09;;;;;;;4.78;2.22;;;;;;;;;;4952567;28;20111;-76
2021/07/14 07:52:36;;;;;;;3.17;1.90;;;;;;;;;;4950313;29;20047;-76
2021/07/14 07:55:06;;;;;;;4.47;1.85;;;;;;;;;;4952129;28;20090;-75
2021/07/14 07:57:33;;;;;;;3.22;1.70;;;;;;;;;;4952939;28;20548;-75
2021/07/14 08:00:00;;;;;;;4.55;1.95;;;;;;;;;;4943538;28;20060;-75
2021/07/14 08:02:26;;;;;;;6.03;2.10;;;;;;;;;;4952223;29;20054;-77
2021/07/14 08:04:53;;;;;;;3.53;1.70;;;;;;;;;;4952217;28;20066;-76
2021/07/14 08:07:20;;;;;;;7.65;3.90;;;;;;;;;;4953035;28;20079;-77
2021/07/14 08:09:47;;;;;;;4.90;1.92;;;;;;;;;;4952350;28;20051;-77
2021/07/14 08:12:15;;;;;;;6.32;2.40;;;;;;;;;;4952314;28;20110;-77
2021/07/14 08:14:41;;;;;;;3.00;1.90;;;;;;;;;;4951955;28;20121;-77
2021/07/14 08:17:08;;;;;;;4.38;2.20;;;;;;;;;;4952561;28;20493;-76
2021/07/14 08:19:35;;;;;;;4.05;2.20;;;;;;;;;;4952712;28;20576;-77
2021/07/14 08:22:02;;;;;;;4.35;2.30;;;;;;;;;;4952568;28;20106;-76
2021/07/14 08:24:28;;;;;;;3.95;2.17;;;;;;;;;;4952293;28;20106;-76
2021/07/14 08:26:55;;;;;;;2.80;1.60;;;;;;;;;;4950043;28;20492;-75
2021/07/14 08:29:23;;;;;;;5.47;3.08;;;;;;;;;;4953339;29;20051;-77
2021/07/14 08:31:51;;;;;;;4.50;2.20;;;;;;;;;;4955012;29;20059;-79
2021/07/14 08:34:18;;;;;;;6.32;3.45;;;;;;;;;;4960536;29;20039;-79
2021/07/14 08:36:45;;;;;;;8.75;4.13;;;;;;;;;;4958418;28;20048;-77
2021/07/14 08:39:13;;;;;;;4.63;2.30;;;;;;;;;;4956177;29;20047;-78
2021/07/14 08:41:42;;;;;;;4.05;2.50;;;;;;;;;;4956362;28;20467;-78
2021/07/14 08:44:10;;;;;;;5.22;2.70;;;;;;;;;;4954582;29;20110;-79
2021/07/14 08:46:38;;;;;;;6.43;2.30;;;;;;;;;;4953948;29;20731;-78
2021/07/14 08:49:06;;;;;;;7.38;4.32;;;;;;;;;;4951528;29;20051;-75
2021/07/14 08:51:35;;;;;;;5.60;3.28;;;;;;;;;;4952194;28;20085;-76
2021/07/14 08:54:02;;;;;;;5.60;3.17;;;;;;;;;;4951860;28;20054;-76
2021/07/14 08:56:29;;;;;;;5.57;2.80;;;;;;;;;;4950982;28;20071;-74
2021/07/14 08:58:56;;;;;;;5.65;3.53;;;;;;;;;;4950628;29;20051;-74
2021/07/14 09:01:23;;;;;;;6.22;2.60;;;;;;;;;;4951887;28;20107;-74
2021/07/14 09:03:51;;;;;;;4.85;2.60;;;;;;;;;;4953347;28;20094;-74
2021/07/14 09:06:18;;;;;;;3.42;2.03;;;;;;;;;;4955029;28;20054;-75
2021/07/14 09:08:45;;;;;;;5.38;3.03;;;;;;;;;;4952492;28;20145;-75
2021/07/14 09:11:12;;;;;;;4.07;2.50;;;;;;;;;;4952315;28;20122;-75
2021/07/14 09:13:41;;;;;;;3.80;2.05;;;;;;;;;;4952576;29;20047;-73
2021/07/14 09:16:08;;;;;;;3.92;2.28;;;;;;;;;;4951839;28;20053;-74
2021/07/14 09:18:36;;;;;;;4.32;2.30;;;;;;;;;;4952501;29;20047;-77
2021/07/14 09:21:15;;;;;;;3.42;1.95;;;;;;;;;;4952499;28;20047;-74
2021/07/14 09:23:42;;;;;;;4.03;2.10;;;;;;;;;;4952350;29;20126;-75
2021/07/14 09:26:11;;;;;;;4.40;1.98;;;;;;;;;;4951691;29;20150;-74
2021/07/14 09:28:39;;;;;;;4.45;2.30;;;;;;;;;;4952173;29;20126;-74
2021/07/14 09:31:07;;;;;;;4.88;2.35;;;;;;;;;;4951803;29;20200;-74
2021/07/14 09:33:35;;;;;;;2.95;1.55;;;;;;;;;;4952031;28;20138;-74
2021/07/14 09:36:02;;;;;;;3.65;1.92;;;;;;;;;;4951276;28;20051;-73
2021/07/14 09:38:31;;;;;;;6.13;3.45;;;;;;;;;;4951494;29;20043;-74
2021/07/14 09:41:00;;;;;;;4.18;2.53;;;;;;;;;;4951314;29;20098;-75
2021/07/14 09:43:30;;;;;;;6.10;4.20;;;;;;;;;;4951851;29;20051;-76
2021/07/14 09:45:58;;;;;;;5.15;3.22;;;;;;;;;;4950624;28;20047;-76
2021/07/14 09:48:26;;;;;;;6.60;3.40;;;;;;;;;;4951444;29;20055;-76
2021/07/14 09:50:57;;;;;;;4.35;2.40;;;;;;;;;;4951365;29;20102;-75
2021/07/14 09:53:26;;;;;;;4.60;2.75;;;;;;;;;;4951308;29;20488;-76
2021/07/14 09:55:56;;;;;;;3.60;1.92;;;;;;;;;;4950913;29;20047;-76
2021/07/14 09:58:25;;;;;;;3.50;2.20;;;;;;;;;;4951691;28;20086;-76
2021/07/14 10:00:54;;;;;;;4.07;2.30;;;;;;;;;;4951434;29;20560;-76
2021/07/14 10:03:29;;;;;;;4.40;2.20;;;;;;;;;;4951896;28;20171;-76
2021/07/14 10:06:05;;;;;;;4.63;2.17;;;;;;;;;;4956745;28;20051;-76
2021/07/14 10:08:33;;;;;;;6.30;2.70;;;;;;;;;;4963250;28;20047;-74
2021/07/14 10:11:14;;;;;;;4.60;2.72;;;;;;;;;;4965742;28;20098;-75
2021/07/14 10:13:51;;;;;;;4.55;2.20;;;;;;;;;;4963601;29;20485;-76
2021/07/14 10:16:19;;;;;;;3.47;1.70;;;;;;;;;;4957586;29;20051;-76
2021/07/14 10:19:00;;;;;;;4.75;2.05;;;;;;;;;;4955635;29;20121;-76
2021/07/14 10:21:27;;;;;;;3.35;2.00;;;;;;;;;;4954981;29;20051;-75
2021/07/14 10:23:54;;;;;;;3.60;2.08;;;;;;;;;;4954821;29;20544;-76
2021/07/14 10:26:23;;;;;;;3.17;1.58;;;;;;;;;;4954007;29;20102;-75
2021/07/14 10:28:51;;;;;;;3.25;1.80;;;;;;;;;;4954603;29;20051;-75
2021/07/14 10:31:22;;;;;;;3.75;2.10;;;;;;;;;;4954884;29;20047;-77
2021/07/14 10:33:50;;;;;;;3.97;1.75;;;;;;;;;;4954624;29;20047;-75
2021/07/14 10:36:20;;;;;;;5.45;2.20;;;;;;;;;;4953608;29;20043;-78
2021/07/14 10:38:49;;;;;;;6.30;2.55;;;;;;;;;;4955587;29;20520;-74
2021/07/14 10:41:17;;;;;;;4.15;2.42;;;;;;;;;;4954860;29;20083;-77
2021/07/14 10:43:47;;;;;;;4.82;2.40;;;;;;;;;;4955282;29;20115;-77
2021/07/14 10:46:15;;;;;;;4.90;2.10;;;;;;;;;;4956513;29;20047;-78
2021/07/14 10:48:42;;;;;;;4.00;1.75;;;;;;;;;;4956171;29;20059;-76
2021/07/14 10:51:09;;;;;;;3.50;1.80;;;;;;;;;;4953864;29;20452;-75
2021/07/14 10:53:39;;;;;;;2.92;1.70;;;;;;;;;;4954656;28;20098;-75
2021/07/14 10:56:07;;;;;;;6.18;1.92;;;;;;;;;;4950499;29;20056;-74
2021/07/14 10:58:34;;;;;;;3.83;1.73;;;;;;;;;;4952376;29;20051;-75
2021/07/14 11:01:03;;;;;;;3.45;1.80;;;;;;;;;;4953498;29;20043;-76
2021/07/14 11:03:47;;;;;;;3.55;1.90;;;;;;;;;;4952825;28;20130;-75
2021/07/14 11:06:15;;;;;;;3.55;2.03;;;;;;;;;;4954479;28;20433;-75
2021/07/14 11:08:46;;;;;;;4.78;1.90;;;;;;;;;;4953981;28;20145;-75
2021/07/14 11:11:14;;;;;;;4.18;1.88;;;;;;;;;;4950456;28;20099;-75
2021/07/14 11:13:42;;;;;;;3.88;1.90;;;;;;;;;;4953590;28;20051;-76
2021/07/14 11:16:28;;;;;;;3.30;1.80;;;;;;;;;;4953327;28;20098;-76
2021/07/14 11:19:07;;;;;;;4.65;2.17;;;;;;;;;;4952695;28;20090;-75
2021/07/14 11:21:52;;;;;;;3.80;2.10;;;;;;;;;;4952336;28;20079;-75
2021/07/14 11:24:56;;;;;;;3.38;1.75;;;;;;;;;;4952824;28;20146;-76
2021/07/14 11:27:58;;;;;;;3.60;1.88;;;;;;;;;;4953468;29;20107;-76
2021/07/14 11:30:35;;;;;;;3.45;1.77;;;;;;;;;;4953372;28;20137;-77
2021/07/14 11:33:05;;;;;;;4.32;1.77;;;;;;;;;;4952980;28;20051;-77
2021/07/14 11:35:38;;;;;;;3.22;1.55;;;;;;;;;;4952891;28;20154;-74
2021/07/14 11:38:06;;;;;;;2.97;1.70;;;;;;;;;;4953416;28;20051;-75
2021/07/14 11:40:39;;;;;;;2.97;1.63;;;;;;;;;;4958071;29;20043;-75
2021/07/14 11:43:16;;;;;;;4.25;1.80;;;;;;;;;;4953944;28;20051;-76
2021/07/14 11:45:44;;;;;;;3.60;1.90;;;;;;;;;;4953265;28;20055;-75
2021/07/14 11:48:15;;;;;;;5.78;1.90;;;;;;;;;;4953848;28;20043;-75
2021/07/14 11:50:51;;;;;;;5.05;2.03;;;;;;;;;;4953384;28;20064;-76
2021/07/14 11:53:42;;;;;;;5.45;2.17;;;;;;;;;;4953088;28;20483;-76
2021/07/14 11:56:12;;;;;;;5.97;2.35;;;;;;;;;;4976019;23;20502;-76
2021/07/14 11:59:07;;;;;;;4.88;2.35;;;;;;;;;;4975042;28;20074;-81
2021/07/14 12:01:56;;;;;;;4.38;2.30;;;;;;;;;;4975789;28;20043;-83
2021/07/14 12:04:26;;;;;;;3.60;1.98;;;;;;;;;;4978936;28;20043;-79
2021/07/14 12:07:00;;;;;;;3.53;2.25;;;;;;;;;;4955311;29;20051;-82
2021/07/14 12:09:35;;;;;;;5.15;2.50;;;;;;;;;;4959066;29;20106;-81
2021/07/14 12:12:05;;;;;;;3.50;2.13;;;;;;;;;;4956800;29;20407;-79
2021/07/14 12:14:35;;;;;;;5.55;2.80;;;;;;;;;;4956212;28;20400;-76
2021/07/14 12:17:04;;;;;;;4.63;2.78;;;;;;;;;;4955469;29;20111;-78
2021/07/14 12:19:34;;;;;;;3.92;2.83;;;;;;;;;;4954215;29;20106;-77
2021/07/14 12:22:08;;;;;;;4.72;2.80;;;;;;;;;;4953943;28;20051;-77
2021/07/14 12:24:38;;;;;;;3.85;2.63;;;;;;;;;;4953564;29;20452;-76
2021/07/14 12:27:06;;;;;;;;;;;;;;;;;;4954313;29;20586;-77
2021/07/14 12:29:33;;;;;;;4.53;2.70;;;;;;;;;;4954854;29;19922;-77
2021/07/14 12:32:01;;;;;;;5.57;2.80;;;;;;;;;;4955599;28;20571;-78
2021/07/14 12:34:29;;;;;;;4.57;2.60;;;;;;;;;;4953374;29;20476;-77
2021/07/14 12:36:58;;;;;;;5.28;2.78;;;;;;;;;;4953398;28;20098;-76
2021/07/14 12:39:27;;;;;;;5.70;2.70;;;;;;;;;;4953478;29;20043;-77
2021/07/14 12:41:55;;;;;;;4.25;2.70;;;;;;;;;;4955873;29;20333;-77
2021/07/14 12:44:23;;;;;;;4.70;2.80;;;;;;;;;;4934149;28;20047;-76
2021/07/14 12:46:50;;;;;;;4.65;2.80;;;;;;;;;;4933919;29;20157;-77
2021/07/14 12:49:18;;;;;;;4.78;2.92;;;;;;;;;;4937034;29;20052;-77
2021/07/14 12:52:06;;;;;;;5.47;2.90;;;;;;;;;;4936769;29;20048;-78
2021/07/14 12:54:33;;;;;;;5.43;3.05;;;;;;;;;;4936028;29;20143;-78
2021/07/14 12:57:16;;;;;;;4.43;2.97;;;;;;;;;;4936744;29;20048;-78
2021/07/14 12:59:51;;;;;;;3.90;2.90;;;;;;;;;;4936413;29;20118;-77
2021/07/14 13:02:18;;;;;;;4.43;3.45;;;;;;;;;;4933922;29;20497;-78
2021/07/14 13:04:45;;;;;;;5.10;3.50;;;;;;;;;;4933426;29;20047;-77
2021/07/14 13:07:17;;;;;;;5.93;3.47;;;;;;;;;;4933784;29;20080;-76
2021/07/14 13:09:44;;;;;;;5.72;3.90;;;;;;;;;;4935820;29;20099;-80
2021/07/14 13:12:11;;;;;;;5.75;4.10;;;;;;;;;;4933510;29;20044;-75
2021/07/14 13:14:38;;;;;;;5.65;4.10;;;;;;;;;;4936122;29;20055;-77
2021/07/14 13:17:05;;;;;;;6.32;4.70;;;;;;;;;;4936813;29;20119;-78
2021/07/14 13:19:33;;;;;;;5.90;4.38;;;;;;;;;;4932963;29;20052;-77
2021/07/14 13:22:01;;;;;;;6.13;4.15;;;;;;;;;;4934906;29;20419;-76
2021/07/14 13:24:33;;;;;;;6.35;3.85;;;;;;;;;;4933807;29;20107;-76
2021/07/14 13:27:03;;;;;;;5.63;3.72;;;;;;;;;;4933416;29;20052;-77
2021/07/14 13:29:31;;;;;;;;;;;;;;;;;;4933815;29;20047;-77
2021/07/14 13:32:11;;;;;;;5.80;4.53;;;;;;;;;;4933392;29;19923;-76
2021/07/14 13:34:43;;;;;;;6.15;4.07;;;;;;;;;;4933198;29;20103;-77
2021/07/14 13:37:11;;;;;;;5.05;3.63;;;;;;;;;;4932512;29;20039;-78
2021/07/14 13:39:41;;;;;;;7.13;4.43;;;;;;;;;;4933139;29;20102;-76
2021/07/14 13:42:16;;;;;;;5.27;3.73;;;;;;;;;;4932491;29;20681;-78
2021/07/14 13:44:43;;;;;;;5.00;3.10;;;;;;;;;;4934160;29;20349;-76
2021/07/14 13:47:13;;;;;;;5.05;3.42;;;;;;;;;;4937405;29;20192;-77
2021/07/14 13:49:41;;;;;;;6.47;3.75;;;;;;;;;;4937443;29;20473;-77
2021/07/14 13:52:08;;;;;;;4.43;2.80;;;;;;;;;;4935542;29;20062;-77
2021/07/14 13:54:37;;;;;;;8.07;4.60;;;;;;;;;;4936899;29;20047;-76
2021/07/14 13:57:17;;;;;;;6.20;3.40;;;;;;;;;;4938748;29;20059;-77
2021/07/14 13:59:54;;;;;;;7.03;2.88;;;;;;;;;;4937625;29;20048;-77
2021/07/14 14:02:29;;;;;;;4.80;3.15;;;;;;;;;;4939664;29;20051;-77
2021/07/14 14:04:58;;;;;;;6.85;4.40;;;;;;;;;;4940872;29;20390;-78
2021/07/14 14:07:30;;;;;;;4.70;3.40;;;;;;;;;;4937871;29;20055;-77
2021/07/14 14:10:00;;;;;;;5.45;3.33;;;;;;;;;;4944040;29;20043;-78
2021/07/14 14:12:30;;;;;;;4.63;3.17;;;;;;;;;;4940014;29;20047;-77
2021/07/14 14:14:58;;;;;;;5.32;3.63;;;;;;;;;;4939551;29;20136;-77
2021/07/14 14:17:26;;;;;;;5.57;3.80;;;;;;;;;;4938906;29;20043;-77
2021/07/14 14:19:54;;;;;;;6.80;4.03;;;;;;;;;;4937979;29;20091;-77
2021/07/14 14:22:22;;;;;;;5.05;3.33;;;;;;;;;;4935625;29;20047;-77
2021/07/14 14:24:48;;;;;;;5.47;3.85;;;;;;;;;;4935680;29;20052;-77
2021/07/14 14:27:18;;;;;;;6.32;3.65;;;;;;;;;;4936972;29;20048;-83
2021/07/14 14:29:47;;;;;;;6.82;4.03;;;;;;;;;;4929055;29;20055;-77
2021/07/14 14:32:16;;;;;;;6.03;3.60;;;;;;;;;;4916943;29;20048;-77
2021/07/14 14:34:44;;;;;;;5.22;3.90;;;;;;;;;;4916084;29;20135;-76
2021/07/14 14:37:11;;;;;;;7.38;4.35;;;;;;;;;;4916363;29;20112;-76
2021/07/14 14:39:38;;;;;;;5.70;3.55;;;;;;;;;;4915872;29;20099;-76
2021/07/14 14:42:04;;;;;;;5.75;3.63;;;;;;;;;;4915209;29;20131;-76
2021/07/14 14:44:33;;;;;;;4.35;2.80;;;;;;;;;;4915211;29;20469;-77
2021/07/14 14:47:02;;;;;;;4.22;2.95;;;;;;;;;;4916174;29;20052;-76
2021/07/14 14:49:29;;;;;;;5.25;3.00;;;;;;;;;;4916563;29;20104;-77
2021/07/14 14:51:55;;;;;;;4.88;2.63;;;;;;;;;;4916724;29;20048;-76
2021/07/14 14:54:22;;;;;;;2.90;2.38;;;;;;;;;;4916487;29;20102;-76
2021/07/14 14:56:49;;;;;;;4.68;2.75;;;;;;;;;;4915491;29;20044;-76
2021/07/14 14:59:16;;;;;;;4.82;3.30;;;;;;;;;;4916373;29;20418;-76
2021/07/14 15:01:42;;;;;;;4.03;2.75;;;;;;;;;;4929575;29;20055;-77